EGPB/LSI METAR and TAF weather

Enter ICAO airport designator
Station Type Date Time Source
EGPB METAR 2021/09/24 00:20 UTC NOAA

EGPB 240020Z AUTO 21019KT 3300 DZ OVC003/// 11/11 Q1000 RERA


Station Type Date Time Source
EGPB Decoded METAR 2021/09/24 00:20 UTC NOAA

Sumburgh Cape , United Kingdom (EGPB) 59-53N 001-18W
Sep 23, 2021 - 08:20 PM EDT / 2021.09.24 0020 UTC
Wind: from the SSW (210 degrees) at 22 MPH (19 KT):0
Visibility: 2 mile(s):0
Sky conditions: overcast
Weather: drizzle
Temperature: 51 F (11 C)
Dew Point: 51 F (11 C)
Relative Humidity: 100%
Pressure (altimeter): 29.53 in. Hg (1000 hPa)
ob: EGPB 240020Z AUTO 21019KT 3300 DZ OVC003/// 11/11 Q1000 RERA
cycle: 0

Station Type Date Time Source
EGPB TAF UTC NOAA

Error!

Example: see airport list